Great Falls, MT (59401)

11:48 PM MDT on September 19, 2017 (GMT -0600)
Great Falls South SIde | | Change Station

Elev 3399 ft 47.50 °N, 111.27 °W | Updated 8 seconds ago

Partly Cloudy
Partly Cloudy
46.8 °F
Feels Like 47 °F
N
1.0
Wind Variable Wind from WSW
Gusts 8.0 mph

Today
High -- | Low -- °F
--% Chance of Precip.
Yesterday
High -- | Low -- °F
Precip. -- in
Pressure 29.66 in
Visibility 10.0 miles
Clouds Clear
Windchill 47 °F
Dew Point 32 °F
Humidity 56%
Rainfall 0.00 in
Snow Depth Not available.
7:08 AM 7:28 PM
New Moon, 0% visible
METAR KGTF 200453Z 22016G27KT 10SM CLR 07/M02 A2964 RMK AO2 PK WND 22029/0437 SLP042 T00721017
Pressure 29.66 in
Visibility 10.0 miles
Clouds Clear
Windchill 47 °F
Dew Point 32 °F
Humidity 56%
Rainfall 0.00 in
Snow Depth Not available.
7:08 AM 7:28 PM
New Moon, 0% visible
METAR KGTF 200453Z 22016G27KT 10SM CLR 07/M02 A2964 RMK AO2 PK WND 22029/0437 SLP042 T00721017

Get Severe Weather Alerts

Thanks for signing up!

Be on the lookout for a verification email in your inbox.

You'll start receiving the daily forecast at 6 AM.

×

10-Day Weather Forecast

Almanac

Astronomy

Sep. 19, 2017 Rise Set
Actual Time
Civil Twilight
Nautical Twilight
Astronomical Twilight
Moon
Length of Visible Light
Length of Day
Tomorrow will be .
, % of the Moon is Illuminated

Today's Extremes

State Highs State Lows

Community

WunderPhotos

Category 6

Welcome to Category 6. This is the collective home for Weather Underground's featured writeups by Dr. Jeff Masters (right), Bob Henson (left), Chris Burt, and other regular contributors.

Nearby

Air Quality

  Air Quality AQ Index Pollutant
Not available.

Snow Depth

Station Depth Elevation

Earthquake Activity

City Distance Mag. Time & Date
Minimum magnitude displayed is 2.5.

Coastal Water Temperatures

Place Temperature

Stations

Nearby Weather Stations

Station Location Temp. Windchill Dew Point Humidity Wind Precip. Elev Updated Type
                   

Watches & Warnings

There are currently no watches in effect.